sensor_id;sensor_type;location;lat;lon;timestamp;P1;durP1;ratioP1;P2;durP2;ratioP2
14088;SDS011;7120;52.890;6.040;2023-01-10T00:00:50;29.73;;;23.00;;
14088;SDS011;7120;52.890;6.040;2023-01-10T00:03:15;34.10;;;25.57;;
14088;SDS011;7120;52.890;6.040;2023-01-10T00:05:41;36.50;;;27.00;;
14088;SDS011;7120;52.890;6.040;2023-01-10T00:08:06;34.83;;;25.27;;
14088;SDS011;7120;52.890;6.040;2023-01-10T00:10:32;39.43;;;25.90;;
14088;SDS011;7120;52.890;6.040;2023-01-10T00:12:59;31.60;;;25.63;;
14088;SDS011;7120;52.890;6.040;2023-01-10T00:15:44;31.57;;;24.53;;
14088;SDS011;7120;52.890;6.040;2023-01-10T00:18:10;37.43;;;26.40;;
14088;SDS011;7120;52.890;6.040;2023-01-10T00:20:35;29.10;;;25.60;;
14088;SDS011;7120;52.890;6.040;2023-01-10T00:23:01;32.10;;;29.07;;
14088;SDS011;7120;52.890;6.040;2023-01-10T00:25:27;30.57;;;26.93;;
14088;SDS011;7120;52.890;6.040;2023-01-10T00:27:53;28.60;;;25.87;;
14088;SDS011;7120;52.890;6.040;2023-01-10T00:30:25;30.17;;;27.03;;
14088;SDS011;7120;52.890;6.040;2023-01-10T00:32:51;36.20;;;31.43;;
14088;SDS011;7120;52.890;6.040;2023-01-10T00:35:18;30.57;;;23.93;;
14088;SDS011;7120;52.890;6.040;2023-01-10T00:37:47;36.53;;;27.40;;
14088;SDS011;7120;52.890;6.040;2023-01-10T00:40:12;32.30;;;29.37;;
14088;SDS011;7120;52.890;6.040;2023-01-10T00:42:38;37.10;;;33.33;;
14088;SDS011;7120;52.890;6.040;2023-01-10T00:45:22;38.83;;;34.50;;
14088;SDS011;7120;52.890;6.040;2023-01-10T00:47:49;25.80;;;23.27;;
14088;SDS011;7120;52.890;6.040;2023-01-10T00:50:16;29.77;;;25.27;;
14088;SDS011;7120;52.890;6.040;2023-01-10T00:52:42;26.73;;;24.10;;
14088;SDS011;7120;52.890;6.040;2023-01-10T00:55:08;31.20;;;24.73;;
14088;SDS011;7120;52.890;6.040;2023-01-10T00:57:33;26.97;;;23.10;;
14088;SDS011;7120;52.890;6.040;2023-01-10T01:00:00;35.07;;;25.27;;
14088;SDS011;7120;52.890;6.040;2023-01-10T01:02:27;29.90;;;22.53;;
14088;SDS011;7120;52.890;6.040;2023-01-10T01:04:53;33.33;;;21.33;;
14088;SDS011;7120;52.890;6.040;2023-01-10T01:07:18;25.87;;;21.83;;
14088;SDS011;7120;52.890;6.040;2023-01-10T01:09:43;29.23;;;21.63;;
14088;SDS011;7120;52.890;6.040;2023-01-10T01:12:28;27.23;;;24.40;;
14088;SDS011;7120;52.890;6.040;2023-01-10T01:14:53;30.37;;;23.10;;
14088;SDS011;7120;52.890;6.040;2023-01-10T01:17:19;28.40;;;22.43;;
14088;SDS011;7120;52.890;6.040;2023-01-10T01:19:44;23.77;;;21.30;;
14088;SDS011;7120;52.890;6.040;2023-01-10T01:22:09;32.80;;;24.90;;
14088;SDS011;7120;52.890;6.040;2023-01-10T01:24:35;32.77;;;24.07;;
14088;SDS011;7120;52.890;6.040;2023-01-10T01:27:00;29.67;;;22.57;;
14088;SDS011;7120;52.890;6.040;2023-01-10T01:29:26;29.70;;;22.63;;
14088;SDS011;7120;52.890;6.040;2023-01-10T01:31:51;28.23;;;23.03;;
14088;SDS011;7120;52.890;6.040;2023-01-10T01:34:18;28.10;;;22.10;;
14088;SDS011;7120;52.890;6.040;2023-01-10T01:36:43;33.07;;;21.43;;
14088;SDS011;7120;52.890;6.040;2023-01-10T01:39:09;24.67;;;22.27;;
14088;SDS011;7120;52.890;6.040;2023-01-10T01:41:34;22.60;;;20.47;;
14088;SDS011;7120;52.890;6.040;2023-01-10T01:44:18;26.17;;;21.53;;
14088;SDS011;7120;52.890;6.040;2023-01-10T01:46:49;59.53;;;55.60;;
14088;SDS011;7120;52.890;6.040;2023-01-10T01:49:24;32.20;;;21.07;;
14088;SDS011;7120;52.890;6.040;2023-01-10T01:51:50;29.00;;;18.30;;
14088;SDS011;7120;52.890;6.040;2023-01-10T01:54:26;19.17;;;17.30;;
14088;SDS011;7120;52.890;6.040;2023-01-10T01:56:57;29.87;;;17.07;;
14088;SDS011;7120;52.890;6.040;2023-01-10T01:59:31;27.77;;;17.73;;
14088;SDS011;7120;52.890;6.040;2023-01-10T02:02:01;25.70;;;18.60;;
14088;SDS011;7120;52.890;6.040;2023-01-10T02:04:41;21.13;;;16.10;;
14088;SDS011;7120;52.890;6.040;2023-01-10T02:07:22;26.73;;;19.13;;
14088;SDS011;7120;52.890;6.040;2023-01-10T02:10:04;21.90;;;16.83;;
14088;SDS011;7120;52.890;6.040;2023-01-10T02:12:33;22.27;;;18.60;;
14088;SDS011;7120;52.890;6.040;2023-01-10T02:15:01;23.53;;;21.03;;
14088;SDS011;7120;52.890;6.040;2023-01-10T02:17:28;25.80;;;19.73;;
14088;SDS011;7120;52.890;6.040;2023-01-10T02:20:01;46.53;;;41.50;;
14088;SDS011;7120;52.890;6.040;2023-01-10T02:42:18;22.40;;;20.40;;
14088;SDS011;7120;52.890;6.040;2023-01-10T02:47:34;24.47;;;19.80;;
14088;SDS011;7120;52.890;6.040;2023-01-10T02:53:09;24.90;;;19.43;;
14088;SDS011;7120;52.890;6.040;2023-01-10T03:01:14;29.13;;;22.53;;
14088;SDS011;7120;52.890;6.040;2023-01-10T03:06:37;29.57;;;26.90;;
14088;SDS011;7120;52.890;6.040;2023-01-10T03:12:17;27.03;;;22.10;;
14088;SDS011;7120;52.890;6.040;2023-01-10T03:14:49;23.40;;;19.90;;
14088;SDS011;7120;52.890;6.040;2023-01-10T03:17:18;33.90;;;25.77;;
14088;SDS011;7120;52.890;6.040;2023-01-10T03:19:51;58.03;;;51.47;;
14088;SDS011;7120;52.890;6.040;2023-01-10T03:22:20;77.23;;;69.67;;
14088;SDS011;7120;52.890;6.040;2023-01-10T03:24:48;57.57;;;53.13;;
14088;SDS011;7120;52.890;6.040;2023-01-10T03:32:33;35.20;;;31.67;;
14088;SDS011;7120;52.890;6.040;2023-01-10T03:34:58;41.10;;;37.30;;
14088;SDS011;7120;52.890;6.040;2023-01-10T03:42:47;67.93;;;61.57;;
14088;SDS011;7120;52.890;6.040;2023-01-10T03:45:42;37.07;;;32.60;;
14088;SDS011;7120;52.890;6.040;2023-01-10T03:48:12;28.20;;;24.90;;
14088;SDS011;7120;52.890;6.040;2023-01-10T03:50:41;62.10;;;56.90;;
14088;SDS011;7120;52.890;6.040;2023-01-10T03:53:08;1051.87;;;968.23;;
14088;SDS011;7120;52.890;6.040;2023-01-10T03:55:36;925.83;;;864.33;;
14088;SDS011;7120;52.890;6.040;2023-01-10T03:58:02;826.57;;;772.97;;
14088;SDS011;7120;52.890;6.040;2023-01-10T04:00:28;738.63;;;691.60;;
14088;SDS011;7120;52.890;6.040;2023-01-10T04:02:53;755.93;;;710.83;;
14088;SDS011;7120;52.890;6.040;2023-01-10T04:05:19;689.20;;;649.43;;
14088;SDS011;7120;52.890;6.040;2023-01-10T04:07:45;737.20;;;693.93;;
14088;SDS011;7120;52.890;6.040;2023-01-10T04:10:13;718.10;;;676.77;;
14088;SDS011;7120;52.890;6.040;2023-01-10T04:12:38;773.20;;;726.90;;
14088;SDS011;7120;52.890;6.040;2023-01-10T04:15:04;73.30;;;66.93;;
14088;SDS011;7120;52.890;6.040;2023-01-10T04:17:30;51.20;;;46.07;;
14088;SDS011;7120;52.890;6.040;2023-01-10T04:19:55;50.33;;;44.97;;
14088;SDS011;7120;52.890;6.040;2023-01-10T04:22:21;48.87;;;38.07;;
14088;SDS011;7120;52.890;6.040;2023-01-10T04:24:46;46.67;;;33.33;;
14088;SDS011;7120;52.890;6.040;2023-01-10T04:27:12;43.03;;;29.40;;
14088;SDS011;7120;52.890;6.040;2023-01-10T04:29:37;64.57;;;51.37;;
14088;SDS011;7120;52.890;6.040;2023-01-10T04:32:03;52.20;;;28.50;;
14088;SDS011;7120;52.890;6.040;2023-01-10T04:34:28;489.77;;;345.40;;
14088;SDS011;7120;52.890;6.040;2023-01-10T04:36:55;895.53;;;832.57;;
14088;SDS011;7120;52.890;6.040;2023-01-10T04:39:20;630.33;;;594.27;;
14088;SDS011;7120;52.890;6.040;2023-01-10T04:41:46;598.40;;;564.43;;
14088;SDS011;7120;52.890;6.040;2023-01-10T04:44:11;653.77;;;617.33;;
14088;SDS011;7120;52.890;6.040;2023-01-10T04:46:37;638.17;;;601.70;;
14088;SDS011;7120;52.890;6.040;2023-01-10T04:49:02;613.07;;;578.27;;
14088;SDS011;7120;52.890;6.040;2023-01-10T04:51:27;593.20;;;560.40;;
14088;SDS011;7120;52.890;6.040;2023-01-10T04:53:53;625.27;;;590.37;;
14088;SDS011;7120;52.890;6.040;2023-01-10T04:56:19;624.33;;;590.20;;
14088;SDS011;7120;52.890;6.040;2023-01-10T04:58:46;580.50;;;549.10;;
14088;SDS011;7120;52.890;6.040;2023-01-10T05:01:13;556.60;;;527.13;;
14088;SDS011;7120;52.890;6.040;2023-01-10T05:03:48;527.77;;;500.27;;
14088;SDS011;7120;52.890;6.040;2023-01-10T05:06:17;525.93;;;497.90;;
14088;SDS011;7120;52.890;6.040;2023-01-10T05:08:43;534.57;;;506.10;;
14088;SDS011;7120;52.890;6.040;2023-01-10T05:11:09;569.70;;;540.20;;
14088;SDS011;7120;52.890;6.040;2023-01-10T05:13:35;598.60;;;565.20;;
14088;SDS011;7120;52.890;6.040;2023-01-10T05:16:01;512.17;;;485.00;;
14088;SDS011;7120;52.890;6.040;2023-01-10T05:18:27;476.63;;;451.93;;
14088;SDS011;7120;52.890;6.040;2023-01-10T05:21:03;532.20;;;504.00;;
14088;SDS011;7120;52.890;6.040;2023-01-10T05:23:30;549.10;;;521.53;;
14088;SDS011;7120;52.890;6.040;2023-01-10T05:25:55;531.33;;;503.17;;
14088;SDS011;7120;52.890;6.040;2023-01-10T05:28:21;547.30;;;518.30;;
14088;SDS011;7120;52.890;6.040;2023-01-10T05:30:46;528.13;;;500.60;;
14088;SDS011;7120;52.890;6.040;2023-01-10T05:33:12;593.50;;;561.27;;
14088;SDS011;7120;52.890;6.040;2023-01-10T05:35:37;603.50;;;570.90;;
14088;SDS011;7120;52.890;6.040;2023-01-10T05:38:03;542.73;;;514.47;;
14088;SDS011;7120;52.890;6.040;2023-01-10T05:40:28;617.83;;;583.53;;
14088;SDS011;7120;52.890;6.040;2023-01-10T05:42:54;606.53;;;572.60;;
14088;SDS011;7120;52.890;6.040;2023-01-10T05:45:19;646.30;;;609.70;;
14088;SDS011;7120;52.890;6.040;2023-01-10T05:47:44;558.03;;;526.00;;
14088;SDS011;7120;52.890;6.040;2023-01-10T05:50:10;493.07;;;465.03;;
14088;SDS011;7120;52.890;6.040;2023-01-10T05:52:35;485.07;;;457.20;;
14088;SDS011;7120;52.890;6.040;2023-01-10T05:55:01;528.30;;;496.43;;
14088;SDS011;7120;52.890;6.040;2023-01-10T05:57:26;379.20;;;358.53;;
14088;SDS011;7120;52.890;6.040;2023-01-10T05:59:52;348.10;;;330.57;;
14088;SDS011;7120;52.890;6.040;2023-01-10T06:02:17;411.93;;;390.27;;
14088;SDS011;7120;52.890;6.040;2023-01-10T06:04:43;427.97;;;407.03;;
14088;SDS011;7120;52.890;6.040;2023-01-10T06:07:08;379.13;;;361.20;;
14088;SDS011;7120;52.890;6.040;2023-01-10T06:09:33;495.73;;;471.60;;
14088;SDS011;7120;52.890;6.040;2023-01-10T06:11:59;436.07;;;414.43;;
14088;SDS011;7120;52.890;6.040;2023-01-10T06:14:24;519.03;;;492.70;;
14088;SDS011;7120;52.890;6.040;2023-01-10T06:16:50;532.87;;;506.10;;
14088;SDS011;7120;52.890;6.040;2023-01-10T06:19:15;490.60;;;465.63;;
14088;SDS011;7120;52.890;6.040;2023-01-10T06:21:42;392.33;;;372.90;;
14088;SDS011;7120;52.890;6.040;2023-01-10T06:24:07;361.37;;;342.83;;
14088;SDS011;7120;52.890;6.040;2023-01-10T06:26:33;406.77;;;387.43;;
14088;SDS011;7120;52.890;6.040;2023-01-10T06:28:58;314.43;;;298.97;;
14088;SDS011;7120;52.890;6.040;2023-01-10T06:31:24;336.93;;;319.20;;
14088;SDS011;7120;52.890;6.040;2023-01-10T06:33:50;343.50;;;326.73;;
14088;SDS011;7120;52.890;6.040;2023-01-10T06:36:15;253.53;;;240.60;;
14088;SDS011;7120;52.890;6.040;2023-01-10T06:38:41;257.20;;;243.17;;
14088;SDS011;7120;52.890;6.040;2023-01-10T06:41:06;214.57;;;201.63;;
14088;SDS011;7120;52.890;6.040;2023-01-10T06:43:47;222.87;;;210.13;;
14088;SDS011;7120;52.890;6.040;2023-01-10T06:46:14;224.20;;;210.60;;
14088;SDS011;7120;52.890;6.040;2023-01-10T06:48:41;275.50;;;259.87;;
14088;SDS011;7120;52.890;6.040;2023-01-10T06:51:11;319.97;;;302.43;;
14088;SDS011;7120;52.890;6.040;2023-01-10T06:53:37;353.73;;;334.10;;
14088;SDS011;7120;52.890;6.040;2023-01-10T06:56:03;426.47;;;402.60;;
14088;SDS011;7120;52.890;6.040;2023-01-10T06:58:30;398.93;;;376.73;;
14088;SDS011;7120;52.890;6.040;2023-01-10T07:00:55;402.47;;;379.77;;
14088;SDS011;7120;52.890;6.040;2023-01-10T07:03:21;461.43;;;437.07;;
14088;SDS011;7120;52.890;6.040;2023-01-10T07:05:46;462.87;;;436.87;;
14088;SDS011;7120;52.890;6.040;2023-01-10T07:08:11;538.50;;;507.40;;
14088;SDS011;7120;52.890;6.040;2023-01-10T07:10:40;402.53;;;377.97;;
14088;SDS011;7120;52.890;6.040;2023-01-10T07:13:06;373.50;;;350.27;;
14088;SDS011;7120;52.890;6.040;2023-01-10T07:15:32;622.37;;;580.87;;
14088;SDS011;7120;52.890;6.040;2023-01-10T07:17:57;840.07;;;786.27;;
14088;SDS011;7120;52.890;6.040;2023-01-10T07:20:23;854.13;;;798.60;;
14088;SDS011;7120;52.890;6.040;2023-01-10T07:22:53;880.67;;;822.20;;
14088;SDS011;7120;52.890;6.040;2023-01-10T07:25:23;834.67;;;780.77;;
14088;SDS011;7120;52.890;6.040;2023-01-10T07:27:49;903.37;;;843.07;;
14088;SDS011;7120;52.890;6.040;2023-01-10T07:30:15;885.70;;;827.63;;
14088;SDS011;7120;52.890;6.040;2023-01-10T07:32:40;928.33;;;865.67;;
14088;SDS011;7120;52.890;6.040;2023-01-10T07:35:06;880.23;;;822.53;;
14088;SDS011;7120;52.890;6.040;2023-01-10T07:37:32;753.63;;;707.70;;
14088;SDS011;7120;52.890;6.040;2023-01-10T07:39:59;776.37;;;728.90;;
14088;SDS011;7120;52.890;6.040;2023-01-10T07:42:24;784.53;;;736.20;;
14088;SDS011;7120;52.890;6.040;2023-01-10T07:44:50;725.20;;;683.13;;
14088;SDS011;7120;52.890;6.040;2023-01-10T07:47:15;818.63;;;765.37;;
14088;SDS011;7120;52.890;6.040;2023-01-10T07:49:40;899.60;;;841.33;;
14088;SDS011;7120;52.890;6.040;2023-01-10T07:52:06;807.40;;;756.37;;
14088;SDS011;7120;52.890;6.040;2023-01-10T07:54:33;808.20;;;756.93;;
14088;SDS011;7120;52.890;6.040;2023-01-10T07:56:59;833.27;;;778.60;;
14088;SDS011;7120;52.890;6.040;2023-01-10T07:59:25;840.70;;;786.13;;
14088;SDS011;7120;52.890;6.040;2023-01-10T08:01:50;833.73;;;778.73;;
14088;SDS011;7120;52.890;6.040;2023-01-10T08:04:15;751.97;;;705.93;;
14088;SDS011;7120;52.890;6.040;2023-01-10T08:06:41;807.73;;;756.07;;
14088;SDS011;7120;52.890;6.040;2023-01-10T08:09:06;694.10;;;652.40;;
14088;SDS011;7120;52.890;6.040;2023-01-10T08:11:31;648.53;;;610.63;;
14088;SDS011;7120;52.890;6.040;2023-01-10T08:13:57;646.83;;;607.77;;
14088;SDS011;7120;52.890;6.040;2023-01-10T08:16:24;620.73;;;584.43;;
14088;SDS011;7120;52.890;6.040;2023-01-10T08:18:49;558.90;;;526.30;;
14088;SDS011;7120;52.890;6.040;2023-01-10T08:21:15;570.17;;;539.13;;
14088;SDS011;7120;52.890;6.040;2023-01-10T08:23:40;598.00;;;564.40;;
14088;SDS011;7120;52.890;6.040;2023-01-10T08:26:05;575.87;;;544.03;;
14088;SDS011;7120;52.890;6.040;2023-01-10T08:28:31;554.87;;;523.90;;
14088;SDS011;7120;52.890;6.040;2023-01-10T08:30:56;501.60;;;474.70;;
14088;SDS011;7120;52.890;6.040;2023-01-10T08:33:22;457.87;;;432.67;;
14088;SDS011;7120;52.890;6.040;2023-01-10T08:35:49;343.07;;;323.73;;
14088;SDS011;7120;52.890;6.040;2023-01-10T08:38:14;589.43;;;557.70;;
14088;SDS011;7120;52.890;6.040;2023-01-10T08:40:40;691.43;;;651.03;;
14088;SDS011;7120;52.890;6.040;2023-01-10T08:43:06;692.90;;;652.17;;
14088;SDS011;7120;52.890;6.040;2023-01-10T08:45:34;751.00;;;702.67;;
14088;SDS011;7120;52.890;6.040;2023-01-10T08:48:02;1069.60;;;986.73;;
14088;SDS011;7120;52.890;6.040;2023-01-10T08:50:28;762.97;;;692.23;;
14088;SDS011;7120;52.890;6.040;2023-01-10T08:52:58;661.73;;;597.17;;
14088;SDS011;7120;52.890;6.040;2023-01-10T08:55:24;352.60;;;316.30;;
14088;SDS011;7120;52.890;6.040;2023-01-10T08:57:49;1425.93;;;749.17;;
14088;SDS011;7120;52.890;6.040;2023-01-10T09:00:14;404.63;;;362.20;;
14088;SDS011;7120;52.890;6.040;2023-01-10T09:02:41;367.63;;;329.80;;
14088;SDS011;7120;52.890;6.040;2023-01-10T09:05:07;558.93;;;507.60;;
14088;SDS011;7120;52.890;6.040;2023-01-10T09:07:34;1145.07;;;999.90;;
14088;SDS011;7120;52.890;6.040;2023-01-10T09:09:59;1067.10;;;977.10;;
14088;SDS011;7120;52.890;6.040;2023-01-10T09:12:24;1042.50;;;952.30;;
14088;SDS011;7120;52.890;6.040;2023-01-10T09:15:09;1058.53;;;975.10;;
14088;SDS011;7120;52.890;6.040;2023-01-10T09:17:34;1097.60;;;998.90;;
14088;SDS011;7120;52.890;6.040;2023-01-10T09:20:02;1077.07;;;988.70;;
14088;SDS011;7120;52.890;6.040;2023-01-10T09:22:30;1110.93;;;999.90;;
14088;SDS011;7120;52.890;6.040;2023-01-10T09:24:55;1056.03;;;965.90;;
14088;SDS011;7120;52.890;6.040;2023-01-10T09:27:22;1142.20;;;999.90;;
14088;SDS011;7120;52.890;6.040;2023-01-10T09:29:47;1078.97;;;977.03;;
14088;SDS011;7120;52.890;6.040;2023-01-10T09:32:12;977.93;;;885.77;;
14088;SDS011;7120;52.890;6.040;2023-01-10T09:34:38;948.80;;;863.97;;
14088;SDS011;7120;52.890;6.040;2023-01-10T09:37:04;993.43;;;900.00;;
14088;SDS011;7120;52.890;6.040;2023-01-10T09:39:30;1121.13;;;999.90;;
14088;SDS011;7120;52.890;6.040;2023-01-10T09:52:49;817.13;;;739.93;;
14088;SDS011;7120;52.890;6.040;2023-01-10T09:57:48;807.17;;;728.40;;
14088;SDS011;7120;52.890;6.040;2023-01-10T10:00:16;1119.17;;;997.50;;
14088;SDS011;7120;52.890;6.040;2023-01-10T10:02:46;1042.13;;;944.07;;
14088;SDS011;7120;52.890;6.040;2023-01-10T10:05:24;913.90;;;825.83;;
14088;SDS011;7120;52.890;6.040;2023-01-10T10:07:59;730.37;;;651.23;;
14088;SDS011;7120;52.890;6.040;2023-01-10T10:10:38;599.37;;;497.90;;
14088;SDS011;7120;52.890;6.040;2023-01-10T10:16:22;715.33;;;638.87;;
14088;SDS011;7120;52.890;6.040;2023-01-10T10:26:59;853.20;;;766.17;;
14088;SDS011;7120;52.890;6.040;2023-01-10T10:32:41;792.17;;;677.27;;
14088;SDS011;7120;52.890;6.040;2023-01-10T10:35:12;641.97;;;575.83;;
14088;SDS011;7120;52.890;6.040;2023-01-10T10:37:40;634.83;;;574.10;;
14088;SDS011;7120;52.890;6.040;2023-01-10T10:42:38;585.43;;;512.10;;
14088;SDS011;7120;52.890;6.040;2023-01-10T10:45:22;563.57;;;504.53;;
14088;SDS011;7120;52.890;6.040;2023-01-10T10:47:58;464.30;;;414.13;;
14088;SDS011;7120;52.890;6.040;2023-01-10T10:50:37;477.67;;;427.77;;
14088;SDS011;7120;52.890;6.040;2023-01-10T10:53:12;277.77;;;242.10;;
14088;SDS011;7120;52.890;6.040;2023-01-10T10:55:37;297.83;;;232.73;;
14088;SDS011;7120;52.890;6.040;2023-01-10T10:58:04;370.90;;;319.17;;
14088;SDS011;7120;52.890;6.040;2023-01-10T11:00:31;372.37;;;333.40;;
14088;SDS011;7120;52.890;6.040;2023-01-10T11:02:59;674.87;;;615.23;;
14088;SDS011;7120;52.890;6.040;2023-01-10T11:05:31;374.43;;;331.90;;
14088;SDS011;7120;52.890;6.040;2023-01-10T11:08:02;318.93;;;289.40;;
14088;SDS011;7120;52.890;6.040;2023-01-10T11:10:39;346.47;;;301.63;;
14088;SDS011;7120;52.890;6.040;2023-01-10T11:13:20;742.13;;;673.23;;
14088;SDS011;7120;52.890;6.040;2023-01-10T11:16:05;1513.87;;;810.70;;
14088;SDS011;7120;52.890;6.040;2023-01-10T11:18:32;1999.90;;;999.90;;
14088;SDS011;7120;52.890;6.040;2023-01-10T11:20:59;1411.23;;;733.00;;
14088;SDS011;7120;52.890;6.040;2023-01-10T11:23:49;493.33;;;441.40;;
14088;SDS011;7120;52.890;6.040;2023-01-10T11:26:29;245.20;;;174.07;;
14088;SDS011;7120;52.890;6.040;2023-01-10T11:31:52;221.80;;;180.20;;
14088;SDS011;7120;52.890;6.040;2023-01-10T11:37:36;553.97;;;422.83;;
14088;SDS011;7120;52.890;6.040;2023-01-10T11:39:48;1414.87;;;735.97;;
14088;SDS011;7120;52.890;6.040;2023-01-10T11:42:48;1999.90;;;999.90;;
14088;SDS011;7120;52.890;6.040;2023-01-10T11:47:47;428.07;;;380.67;;
14088;SDS011;7120;52.890;6.040;2023-01-10T11:50:18;1428.57;;;748.77;;
14088;SDS011;7120;52.890;6.040;2023-01-10T11:52:51;446.90;;;403.87;;
14088;SDS011;7120;52.890;6.040;2023-01-10T11:55:21;341.53;;;270.70;;
14088;SDS011;7120;52.890;6.040;2023-01-10T12:00:37;218.77;;;196.67;;
14088;SDS011;7120;52.890;6.040;2023-01-10T12:03:15;386.13;;;339.70;;
14088;SDS011;7120;52.890;6.040;2023-01-10T12:05:49;359.93;;;322.47;;
14088;SDS011;7120;52.890;6.040;2023-01-10T12:08:26;619.20;;;546.67;;
14088;SDS011;7120;52.890;6.040;2023-01-10T12:13:26;358.10;;;322.03;;
14088;SDS011;7120;52.890;6.040;2023-01-10T12:16:12;387.73;;;346.47;;
14088;SDS011;7120;52.890;6.040;2023-01-10T12:18:49;344.80;;;293.33;;
14088;SDS011;7120;52.890;6.040;2023-01-10T12:21:38;1382.80;;;709.57;;
14088;SDS011;7120;52.890;6.040;2023-01-10T12:26:35;215.53;;;162.40;;
14088;SDS011;7120;52.890;6.040;2023-01-10T12:29:04;1459.00;;;774.67;;
14088;SDS011;7120;52.890;6.040;2023-01-10T12:31:35;1999.90;;;999.90;;
14088;SDS011;7120;52.890;6.040;2023-01-10T12:34:04;1999.90;;;999.90;;
14088;SDS011;7120;52.890;6.040;2023-01-10T12:39:31;1999.90;;;999.90;;
14088;SDS011;7120;52.890;6.040;2023-01-10T12:45:13;1999.90;;;999.90;;
14088;SDS011;7120;52.890;6.040;2023-01-10T12:50:40;1389.30;;;684.03;;
14088;SDS011;7120;52.890;6.040;2023-01-10T12:53:11;1999.90;;;999.90;;
14088;SDS011;7120;52.890;6.040;2023-01-10T12:55:47;369.03;;;259.70;;
14088;SDS011;7120;52.890;6.040;2023-01-10T12:58:18;1999.90;;;999.90;;
14088;SDS011;7120;52.890;6.040;2023-01-10T13:00:52;1999.90;;;999.90;;
14088;SDS011;7120;52.890;6.040;2023-01-10T13:03:30;1999.90;;;999.90;;
14088;SDS011;7120;52.890;6.040;2023-01-10T13:05:57;1380.17;;;696.70;;
14088;SDS011;7120;52.890;6.040;2023-01-10T13:08:27;1364.10;;;689.27;;
14088;SDS011;7120;52.890;6.040;2023-01-10T13:10:56;1999.90;;;999.90;;
14088;SDS011;7120;52.890;6.040;2023-01-10T13:13:36;1999.90;;;999.90;;
14088;SDS011;7120;52.890;6.040;2023-01-10T13:19:30;1999.90;;;999.90;;
14088;SDS011;7120;52.890;6.040;2023-01-10T13:22:11;1999.90;;;999.90;;
14088;SDS011;7120;52.890;6.040;2023-01-10T13:24:53;845.40;;;459.00;;
14088;SDS011;7120;52.890;6.040;2023-01-10T13:27:21;1999.90;;;999.90;;
14088;SDS011;7120;52.890;6.040;2023-01-10T13:29:50;1999.90;;;999.90;;
14088;SDS011;7120;52.890;6.040;2023-01-10T13:32:48;1999.90;;;999.90;;
14088;SDS011;7120;52.890;6.040;2023-01-10T13:35:13;1999.90;;;999.90;;
14088;SDS011;7120;52.890;6.040;2023-01-10T13:37:42;1999.90;;;999.90;;
14088;SDS011;7120;52.890;6.040;2023-01-10T13:40:16;1999.90;;;999.90;;
14088;SDS011;7120;52.890;6.040;2023-01-10T13:42:50;1999.90;;;999.90;;
14088;SDS011;7120;52.890;6.040;2023-01-10T13:51:24;1999.90;;;999.90;;
14088;SDS011;7120;52.890;6.040;2023-01-10T13:53:57;1999.90;;;999.90;;
14088;SDS011;7120;52.890;6.040;2023-01-10T13:56:32;1999.90;;;999.90;;
14088;SDS011;7120;52.890;6.040;2023-01-10T13:59:01;1999.90;;;999.90;;
14088;SDS011;7120;52.890;6.040;2023-01-10T14:01:49;1999.90;;;999.90;;
14088;SDS011;7120;52.890;6.040;2023-01-10T14:04:44;1999.90;;;999.90;;
14088;SDS011;7120;52.890;6.040;2023-01-10T14:09:59;1394.50;;;692.03;;
14088;SDS011;7120;52.890;6.040;2023-01-10T14:12:38;1999.90;;;999.90;;
14088;SDS011;7120;52.890;6.040;2023-01-10T14:15:21;1999.90;;;999.90;;
14088;SDS011;7120;52.890;6.040;2023-01-10T14:20:21;1999.90;;;999.90;;
14088;SDS011;7120;52.890;6.040;2023-01-10T14:25:33;1999.90;;;999.90;;
14088;SDS011;7120;52.890;6.040;2023-01-10T14:28:01;1999.90;;;999.90;;
14088;SDS011;7120;52.890;6.040;2023-01-10T14:32:58;1999.90;;;999.90;;
14088;SDS011;7120;52.890;6.040;2023-01-10T14:35:33;1999.90;;;999.90;;
14088;SDS011;7120;52.890;6.040;2023-01-10T14:38:03;1999.90;;;999.90;;
14088;SDS011;7120;52.890;6.040;2023-01-10T14:40:42;1999.90;;;999.90;;
14088;SDS011;7120;52.890;6.040;2023-01-10T14:43:16;1999.90;;;999.90;;
14088;SDS011;7120;52.890;6.040;2023-01-10T14:48:21;1999.90;;;999.90;;
14088;SDS011;7120;52.890;6.040;2023-01-10T14:50:47;1999.90;;;999.90;;
14088;SDS011;7120;52.890;6.040;2023-01-10T14:53:25;1999.90;;;999.90;;
14088;SDS011;7120;52.890;6.040;2023-01-10T14:55:53;1999.90;;;999.90;;
14088;SDS011;7120;52.890;6.040;2023-01-10T14:58:18;1999.90;;;999.90;;
14088;SDS011;7120;52.890;6.040;2023-01-10T15:00:44;953.03;;;461.73;;
14088;SDS011;7120;52.890;6.040;2023-01-10T15:03:16;1999.90;;;999.90;;
14088;SDS011;7120;52.890;6.040;2023-01-10T15:05:47;1999.90;;;999.90;;
14088;SDS011;7120;52.890;6.040;2023-01-10T15:08:22;1999.90;;;999.90;;
14088;SDS011;7120;52.890;6.040;2023-01-10T15:10:53;1999.90;;;999.90;;
14088;SDS011;7120;52.890;6.040;2023-01-10T15:13:24;1999.90;;;999.90;;
14088;SDS011;7120;52.890;6.040;2023-01-10T15:15:52;1999.90;;;999.90;;
14088;SDS011;7120;52.890;6.040;2023-01-10T15:20:55;1999.90;;;999.90;;
14088;SDS011;7120;52.890;6.040;2023-01-10T15:23:21;1999.90;;;999.90;;
14088;SDS011;7120;52.890;6.040;2023-01-10T15:25:55;87.07;;;66.37;;
14088;SDS011;7120;52.890;6.040;2023-01-10T15:28:23;1449.60;;;771.10;;
14088;SDS011;7120;52.890;6.040;2023-01-10T15:30:51;1999.90;;;999.90;;
14088;SDS011;7120;52.890;6.040;2023-01-10T15:33:21;1383.90;;;713.33;;
14088;SDS011;7120;52.890;6.040;2023-01-10T15:35:51;1441.30;;;766.07;;
14088;SDS011;7120;52.890;6.040;2023-01-10T15:38:18;355.83;;;330.40;;
14088;SDS011;7120;52.890;6.040;2023-01-10T15:40:51;282.10;;;260.47;;
14088;SDS011;7120;52.890;6.040;2023-01-10T15:43:29;1448.80;;;774.23;;
14088;SDS011;7120;52.890;6.040;2023-01-10T15:45:55;1999.90;;;999.90;;
14088;SDS011;7120;52.890;6.040;2023-01-10T15:48:35;182.93;;;169.57;;
14088;SDS011;7120;52.890;6.040;2023-01-10T15:56:35;1999.90;;;999.90;;
14088;SDS011;7120;52.890;6.040;2023-01-10T15:59:49;1999.90;;;999.90;;
14088;SDS011;7120;52.890;6.040;2023-01-10T16:04:36;729.10;;;390.30;;
14088;SDS011;7120;52.890;6.040;2023-01-10T16:07:20;1999.90;;;999.90;;
14088;SDS011;7120;52.890;6.040;2023-01-10T16:09:50;399.07;;;372.60;;
14088;SDS011;7120;52.890;6.040;2023-01-10T16:12:27;354.13;;;324.60;;
14088;SDS011;7120;52.890;6.040;2023-01-10T16:15:24;384.70;;;350.87;;
14088;SDS011;7120;52.890;6.040;2023-01-10T16:18:06;414.47;;;383.07;;
14088;SDS011;7120;52.890;6.040;2023-01-10T16:20:36;495.10;;;377.60;;
14088;SDS011;7120;52.890;6.040;2023-01-10T16:23:05;506.17;;;457.83;;
14088;SDS011;7120;52.890;6.040;2023-01-10T16:25:42;1055.47;;;690.87;;
14088;SDS011;7120;52.890;6.040;2023-01-10T16:28:14;339.67;;;312.03;;
14088;SDS011;7120;52.890;6.040;2023-01-10T16:30:41;369.77;;;344.73;;
14088;SDS011;7120;52.890;6.040;2023-01-10T16:33:19;519.63;;;485.27;;
14088;SDS011;7120;52.890;6.040;2023-01-10T16:35:49;275.97;;;250.50;;
14088;SDS011;7120;52.890;6.040;2023-01-10T16:38:16;495.83;;;447.13;;
14088;SDS011;7120;52.890;6.040;2023-01-10T16:40:43;480.43;;;438.83;;